Airfield :
LOGIN :

Register | Disclaimer

   EN    FR    IT 

 










Legend :    VFR   Marginal VFR   IFR   Intensive IFR   Very Intensive IFR
Visi :
Ceiling :
>= 8 km
>= 3000ft
5 to 8 km
1000 to 3000 ft
1500m to 5 km
500 to 1000 ft
800 to 1500m
200 to 500 ft
< 800m
< 200 ft
Symbols :   Thunderstorms  Fog  Heavy snow  Heavy precipitations  Wind > 20 kt
SIGMETs :     Misc.  Thunderstorms  Icing  Turbulence  Mountain Waves  Volcanic Ashes







- Airport Elevation : 194 ft


EBCV - Chièvres

CURRENT METAR :
  • 281225Z AUTO 24012KT 9999 BKN036/// 21/11 Q1013 BLU

EXPIRED METARs :
  • 281155Z AUTO 23012KT 9999 SCT034/// SCT059/// BKN092/// 21/11 Q1013 BLU
  • 281125Z AUTO 23015KT 9999 FEW029/// BKN088/// 20/11 Q1013 BLU
  • 281055Z AUTO 23013KT 9999 FEW024/// SCT067/// 20/12 Q1013 BLU
  • 281035Z AUTO 23013KT 9999 SCT022/// SCT067/// BKN120/// 20/12 Q1013 WHT
  • 281025Z AUTO 23013KT 9999 FEW021/// SCT099/// BKN120/// 19/12 Q1013 BLU
  • 280955Z AUTO 23012KT 9999 FEW027/// BKN088/// BKN120/// 18/12 Q1013 BLU

TAF TAF EBCV
Valid from the 28 at 10:00 until the 28 at 19:00 UTC


280912Z 2810/2819 23010KT 9999 NSW FEW020 BKN200
BECMG 2810/2812 22012KT SCT020 BKN090
PROB30
TEMPO 2810/2819 23017KT 7000 -RA -SHRA SCT015 BKN020 BKN080 BY EBWM
No reported NOTAMs for that airfield.



MET'MAP, your aeronautical weather chart ! - Copyright ORBIFLY December 2007 - Disclaimer

ORBIFLY MET'MAP TEAM :

Programming & Development : Alexandra Zaïnal
Concept & Development : Baudouin d'Aumeries
Co-Development & Prog : Marc-Olivier Méhu
Technical & hardware support : Manuel Goepfert

Contact : metmap@orbifly.com




SOURCES & CREDITS :

   NOAA